createdAt,value
2023-06-21T00:00:46.828Z,21.18
2023-06-21T00:03:15.223Z,21.09
2023-06-21T00:05:42.462Z,20.95
2023-06-21T00:08:09.528Z,20.93
2023-06-21T00:10:36.414Z,20.94
2023-06-21T00:13:03.694Z,20.87
2023-06-21T00:15:30.711Z,20.90
2023-06-21T00:17:58.376Z,20.66
2023-06-21T00:20:25.600Z,20.77
2023-06-21T00:22:57.385Z,20.83
2023-06-21T00:25:25.351Z,20.93
2023-06-21T00:27:52.373Z,20.98
2023-06-21T00:30:19.276Z,20.84
2023-06-21T00:32:46.519Z,20.73
2023-06-21T00:35:13.455Z,20.69
2023-06-21T00:37:40.403Z,20.59
2023-06-21T00:40:13.519Z,20.65
2023-06-21T00:42:40.858Z,20.63
2023-06-21T00:45:10.198Z,20.69
2023-06-21T00:47:37.608Z,20.76
2023-06-21T00:50:05.491Z,20.77
2023-06-21T00:52:33.348Z,20.72
2023-06-21T00:55:00.354Z,20.67
2023-06-21T00:57:27.219Z,20.48
2023-06-21T00:59:54.676Z,20.59
2023-06-21T01:02:21.729Z,20.59
2023-06-21T01:04:50.839Z,20.53
2023-06-21T01:07:53.262Z,20.37
2023-06-21T01:10:38.850Z,20.21
2023-06-21T01:13:15.510Z,20.13
2023-06-21T01:15:47.436Z,20.18
2023-06-21T01:18:16.829Z,20.12
2023-06-21T01:20:50.997Z,20.00
2023-06-21T01:23:26.830Z,20.02
2023-06-21T01:26:04.590Z,20.14
2023-06-21T01:28:53.418Z,20.20
2023-06-21T01:31:24.792Z,20.28
2023-06-21T01:33:53.653Z,20.30
2023-06-21T01:36:21.259Z,20.37
2023-06-21T01:38:51.079Z,20.40
2023-06-21T01:41:24.533Z,20.42
2023-06-21T01:43:51.884Z,20.43
2023-06-21T01:46:22.735Z,20.45
2023-06-21T01:48:52.156Z,20.30
2023-06-21T01:51:20.755Z,20.40
2023-06-21T01:53:49.007Z,20.43
2023-06-21T01:56:18.342Z,20.44
2023-06-21T01:58:48.061Z,20.48
2023-06-21T02:01:15.521Z,20.48
2023-06-21T02:03:49.604Z,20.50
2023-06-21T02:06:18.097Z,20.49
2023-06-21T02:08:46.241Z,20.42
2023-06-21T02:11:14.545Z,20.37
2023-06-21T02:13:42.108Z,20.41
2023-06-21T02:16:09.878Z,20.42
2023-06-21T02:18:37.004Z,20.50
2023-06-21T02:21:04.434Z,20.45
2023-06-21T02:23:31.483Z,20.41
2023-06-21T02:25:58.647Z,20.42
2023-06-21T02:28:26.718Z,20.38
2023-06-21T02:30:53.888Z,20.37
2023-06-21T02:33:21.107Z,20.29
2023-06-21T02:35:48.503Z,20.27
2023-06-21T02:38:15.624Z,20.35
2023-06-21T02:40:43.819Z,20.25
2023-06-21T02:43:11.380Z,20.24
2023-06-21T02:45:39.127Z,20.22
2023-06-21T02:48:08.495Z,20.28
2023-06-21T02:50:36.987Z,20.29
2023-06-21T02:53:04.266Z,20.21
2023-06-21T02:55:31.806Z,20.20
2023-06-21T02:57:58.826Z,20.24
2023-06-21T03:00:30.263Z,20.11
2023-06-21T03:03:02.122Z,20.23
2023-06-21T03:05:37.694Z,20.26
2023-06-21T03:08:06.433Z,20.24
2023-06-21T03:10:34.420Z,20.27
2023-06-21T03:13:01.956Z,20.26
2023-06-21T03:15:29.505Z,20.35
2023-06-21T03:17:56.676Z,20.25
2023-06-21T03:20:26.770Z,20.25
2023-06-21T03:22:54.581Z,19.89
2023-06-21T03:25:21.624Z,19.94
2023-06-21T03:27:49.119Z,19.83
2023-06-21T03:30:16.492Z,19.73
2023-06-21T03:32:49.424Z,19.75
2023-06-21T03:35:18.778Z,19.81
2023-06-21T03:37:48.027Z,19.78
2023-06-21T03:40:15.818Z,19.92
2023-06-21T03:42:44.321Z,20.10
2023-06-21T03:45:12.196Z,20.34
2023-06-21T03:47:41.427Z,20.57
2023-06-21T03:50:09.884Z,20.78
2023-06-21T03:52:37.554Z,20.94
2023-06-21T03:55:05.758Z,21.20
2023-06-21T03:57:33.383Z,21.28
2023-06-21T04:04:33.096Z,21.75
2023-06-21T04:07:00.064Z,21.88
2023-06-21T04:09:26.911Z,22.07
2023-06-21T04:11:54.073Z,22.08
2023-06-21T04:14:20.898Z,21.95
2023-06-21T04:16:48.017Z,21.90
2023-06-21T04:19:15.138Z,22.09
2023-06-21T04:21:42.124Z,22.16
2023-06-21T04:24:09.241Z,22.44
2023-06-21T04:26:36.317Z,22.70
2023-06-21T04:29:03.447Z,23.05
2023-06-21T04:31:30.428Z,23.34
2023-06-21T04:33:59.716Z,23.21
2023-06-21T04:36:26.995Z,23.51
2023-06-21T04:38:56.308Z,23.78
2023-06-21T04:41:23.737Z,23.80
2023-06-21T04:43:52.288Z,24.11
2023-06-21T04:46:19.854Z,24.41
2023-06-21T04:48:49.433Z,24.64
2023-06-21T04:51:16.740Z,24.85
2023-06-21T04:53:50.323Z,24.82
2023-06-21T04:56:17.613Z,25.21
2023-06-21T04:58:45.574Z,25.40
2023-06-21T05:01:14.986Z,25.50
2023-06-21T05:03:43.491Z,25.55
2023-06-21T05:06:11.268Z,25.76
2023-06-21T05:08:39.713Z,26.04
2023-06-21T05:11:08.268Z,26.04
2023-06-21T05:13:35.420Z,26.29
2023-06-21T05:16:02.648Z,26.48
2023-06-21T05:18:30.670Z,26.53
2023-06-21T05:20:57.499Z,26.33
2023-06-21T05:23:25.381Z,26.79
2023-06-21T05:25:54.510Z,26.76
2023-06-21T05:28:23.394Z,27.18
2023-06-21T05:30:50.446Z,27.17
2023-06-21T05:33:17.632Z,27.31
2023-06-21T05:35:44.671Z,27.44
2023-06-21T05:38:14.799Z,27.44
2023-06-21T05:40:42.182Z,27.56
2023-06-21T05:43:09.115Z,27.51
2023-06-21T05:45:38.132Z,27.84
2023-06-21T05:48:05.755Z,27.46
2023-06-21T05:50:32.970Z,27.69
2023-06-21T05:53:00.048Z,27.77
2023-06-21T05:55:27.305Z,27.93
2023-06-21T05:57:55.362Z,27.85
2023-06-21T06:00:22.637Z,27.93
2023-06-21T06:02:50.879Z,28.24
2023-06-21T06:05:19.710Z,28.52
2023-06-21T06:07:47.542Z,29.02
2023-06-21T06:10:14.806Z,29.26
2023-06-21T06:12:41.661Z,29.48
2023-06-21T06:15:09.347Z,29.35
2023-06-21T06:17:36.507Z,29.44
2023-06-21T06:20:07.511Z,29.85
2023-06-21T06:22:37.309Z,30.09
2023-06-21T06:25:04.533Z,30.16
2023-06-21T06:27:31.433Z,29.55
2023-06-21T06:29:59.286Z,29.05
2023-06-21T06:32:28.832Z,29.73
2023-06-21T06:34:55.787Z,30.16
2023-06-21T06:37:30.727Z,30.49
2023-06-21T06:39:59.221Z,30.33
2023-06-21T06:42:26.158Z,30.44
2023-06-21T06:44:54.574Z,29.74
2023-06-21T06:47:21.897Z,29.84
2023-06-21T06:49:48.889Z,30.51
2023-06-21T06:52:15.899Z,30.62
2023-06-21T06:54:42.730Z,30.88
2023-06-21T06:57:13.647Z,30.86
2023-06-21T06:59:49.796Z,31.25
2023-06-21T07:02:16.806Z,31.58
2023-06-21T07:04:43.773Z,31.60
2023-06-21T07:07:10.707Z,31.45
2023-06-21T07:09:39.182Z,31.89
2023-06-21T07:12:06.557Z,31.46
2023-06-21T07:14:33.495Z,31.11
2023-06-21T07:17:00.526Z,31.54
2023-06-21T07:19:27.388Z,31.97
2023-06-21T07:21:54.280Z,32.28
2023-06-21T07:24:21.255Z,32.44
2023-06-21T07:26:48.143Z,32.77
2023-06-21T07:29:15.031Z,33.05
2023-06-21T07:31:41.903Z,32.28
2023-06-21T07:34:10.635Z,32.51
2023-06-21T07:36:39.937Z,32.74
2023-06-21T07:39:09.739Z,32.58
2023-06-21T07:41:36.887Z,32.42
2023-06-21T07:44:03.899Z,32.40
2023-06-21T07:46:30.936Z,32.81
2023-06-21T07:48:57.837Z,32.86
2023-06-21T07:51:24.773Z,33.05
2023-06-21T07:53:51.752Z,32.36
2023-06-21T07:56:18.776Z,32.63
2023-06-21T07:58:45.693Z,32.75
2023-06-21T08:01:13.630Z,33.21
2023-06-21T08:03:43.708Z,33.40
2023-06-21T08:06:10.618Z,33.50
2023-06-21T08:08:37.588Z,33.65
2023-06-21T08:11:05.041Z,33.59
2023-06-21T08:13:32.029Z,33.33
2023-06-21T08:15:58.928Z,33.95
2023-06-21T08:18:25.813Z,33.93
2023-06-21T08:20:53.010Z,34.14
2023-06-21T08:23:19.884Z,33.72
2023-06-21T08:25:47.894Z,34.01
2023-06-21T08:28:14.842Z,34.52
2023-06-21T08:30:41.793Z,34.42
2023-06-21T08:33:10.497Z,34.41
2023-06-21T08:35:38.947Z,34.39
2023-06-21T08:38:22.572Z,34.36
2023-06-21T08:40:55.155Z,34.12
2023-06-21T08:43:22.942Z,33.91
2023-06-21T08:45:50.857Z,34.20
2023-06-21T08:48:20.031Z,34.55
2023-06-21T08:50:47.346Z,34.89
2023-06-21T08:53:21.352Z,34.84
2023-06-21T08:55:49.149Z,34.80
2023-06-21T08:58:21.774Z,34.67
2023-06-21T09:00:54.929Z,34.90
2023-06-21T09:03:37.853Z,34.84
2023-06-21T09:06:11.872Z,34.91
2023-06-21T09:08:41.898Z,34.81
2023-06-21T09:11:11.025Z,35.33
2023-06-21T09:13:39.893Z,35.46
2023-06-21T09:16:08.134Z,35.33
2023-06-21T09:18:40.767Z,35.20
2023-06-21T09:21:11.749Z,35.33
2023-06-21T09:23:42.219Z,34.60
2023-06-21T09:26:10.401Z,35.25
2023-06-21T09:28:37.448Z,35.09
2023-06-21T09:31:04.381Z,34.99
2023-06-21T09:33:31.362Z,35.46
2023-06-21T09:35:58.930Z,35.47
2023-06-21T09:38:27.630Z,35.28
2023-06-21T09:40:54.545Z,35.10
2023-06-21T09:43:23.049Z,35.25
2023-06-21T09:46:09.456Z,35.48
2023-06-21T09:48:37.593Z,35.46
2023-06-21T09:51:06.905Z,35.73
2023-06-21T09:53:34.154Z,35.57
2023-06-21T09:56:02.275Z,35.28
2023-06-21T09:58:32.909Z,35.20
2023-06-21T10:01:01.772Z,35.50
2023-06-21T10:03:29.051Z,35.59
2023-06-21T10:05:57.748Z,35.16
2023-06-21T10:08:37.765Z,35.22
2023-06-21T10:11:04.811Z,35.44
2023-06-21T10:13:33.897Z,35.37
2023-06-21T10:16:03.011Z,35.49
2023-06-21T10:18:30.674Z,35.32
2023-06-21T10:21:03.080Z,35.12
2023-06-21T10:23:33.515Z,34.87
2023-06-21T10:26:03.077Z,35.05
2023-06-21T10:28:36.482Z,34.92
2023-06-21T10:31:05.330Z,34.73
2023-06-21T10:33:35.409Z,35.06
2023-06-21T10:36:04.800Z,34.87
2023-06-21T10:38:44.236Z,34.97
2023-06-21T10:41:13.524Z,34.68
2023-06-21T10:43:41.863Z,34.95
2023-06-21T10:46:11.283Z,34.99
2023-06-21T10:48:39.060Z,34.91
2023-06-21T10:51:06.891Z,35.02
2023-06-21T10:53:35.303Z,34.97
2023-06-21T10:56:05.672Z,34.59
2023-06-21T10:58:33.001Z,34.19
2023-06-21T11:01:00.212Z,34.15
2023-06-21T11:03:28.394Z,34.54
2023-06-21T11:06:30.122Z,34.24
2023-06-21T11:09:08.145Z,34.44
2023-06-21T11:11:40.975Z,34.50
2023-06-21T11:14:08.284Z,34.63
2023-06-21T11:16:36.729Z,34.19
2023-06-21T11:19:15.418Z,33.80
2023-06-21T11:21:52.061Z,33.68
2023-06-21T11:24:20.983Z,33.97
2023-06-21T11:27:04.475Z,33.95
2023-06-21T11:29:37.059Z,33.94
2023-06-21T11:32:15.197Z,34.18
2023-06-21T11:35:02.156Z,34.18
2023-06-21T11:37:48.941Z,34.31
2023-06-21T11:40:17.513Z,34.01
2023-06-21T11:42:49.401Z,33.93
2023-06-21T11:45:37.232Z,33.85
2023-06-21T11:48:04.253Z,33.94
2023-06-21T11:50:36.856Z,33.52
2023-06-21T11:53:30.820Z,33.53
2023-06-21T11:56:01.652Z,33.63
2023-06-21T11:58:29.669Z,33.85
2023-06-21T12:14:59.223Z,34.45
2023-06-21T12:17:26.258Z,34.44
2023-06-21T12:19:53.353Z,34.21
2023-06-21T12:22:22.561Z,34.18
2023-06-21T12:24:53.554Z,34.25
2023-06-21T12:27:20.549Z,34.24
2023-06-21T12:29:56.609Z,33.96
2023-06-21T12:32:23.421Z,33.81
2023-06-21T12:34:50.614Z,33.83
2023-06-21T12:37:24.600Z,34.11
2023-06-21T12:39:54.891Z,34.07
2023-06-21T12:42:31.147Z,33.89
2023-06-21T12:44:59.281Z,34.06
2023-06-21T12:47:26.706Z,33.92
2023-06-21T12:50:01.685Z,33.87
2023-06-21T12:52:30.269Z,33.80
2023-06-21T12:54:57.848Z,33.90
2023-06-21T12:57:31.593Z,33.96
2023-06-21T12:59:59.032Z,34.13
2023-06-21T13:02:29.317Z,33.96
2023-06-21T13:04:57.246Z,33.90
2023-06-21T13:07:24.189Z,33.75
2023-06-21T13:09:51.739Z,33.57
2023-06-21T13:12:19.266Z,33.42
2023-06-21T13:14:46.765Z,33.00
2023-06-21T13:17:13.707Z,33.52
2023-06-21T13:22:22.200Z,33.53
2023-06-21T13:24:50.473Z,33.76
2023-06-21T13:27:18.384Z,33.65
2023-06-21T13:29:45.226Z,33.71
2023-06-21T13:32:12.170Z,33.58
2023-06-21T13:34:39.047Z,33.61
2023-06-21T13:37:06.037Z,33.78
2023-06-21T13:39:34.510Z,33.83
2023-06-21T13:42:02.238Z,33.82
2023-06-21T13:44:29.173Z,33.57
2023-06-21T13:46:56.149Z,33.66
2023-06-21T13:49:23.029Z,33.70
2023-06-21T13:51:49.948Z,33.51
2023-06-21T13:54:16.926Z,33.52
2023-06-21T13:56:43.892Z,33.54
2023-06-21T13:59:10.751Z,33.46
2023-06-21T14:01:37.695Z,33.47
2023-06-21T14:04:05.978Z,33.36
2023-06-21T14:06:33.109Z,33.29
2023-06-21T14:08:59.965Z,33.29
2023-06-21T14:11:26.791Z,33.16
2023-06-21T14:13:53.749Z,33.40
2023-06-21T14:16:20.778Z,33.41
2023-06-21T14:18:48.586Z,33.30
2023-06-21T14:21:16.728Z,33.28
2023-06-21T14:23:43.850Z,33.24
2023-06-21T14:26:10.722Z,33.21
2023-06-21T14:28:40.896Z,33.34
2023-06-21T14:31:08.055Z,33.47
2023-06-21T14:33:34.950Z,33.37
2023-06-21T14:36:01.829Z,33.38
2023-06-21T14:38:30.510Z,33.42
2023-06-21T14:40:57.880Z,33.44
2023-06-21T14:43:24.693Z,33.47
2023-06-21T14:45:54.030Z,33.13
2023-06-21T14:48:21.385Z,33.15
2023-06-21T14:50:48.299Z,33.11
2023-06-21T14:53:15.335Z,33.03
2023-06-21T14:55:44.847Z,33.00
2023-06-21T14:58:11.700Z,32.92
2023-06-21T15:00:40.089Z,32.95
2023-06-21T15:03:07.145Z,32.90
2023-06-21T15:05:34.125Z,32.98
2023-06-21T15:08:02.541Z,32.92
2023-06-21T15:10:29.886Z,32.74
2023-06-21T15:13:02.061Z,32.53
2023-06-21T15:15:30.534Z,32.74
2023-06-21T15:17:57.954Z,32.71
2023-06-21T15:20:24.925Z,32.68
2023-06-21T15:22:51.992Z,32.56
2023-06-21T15:25:19.025Z,32.73
2023-06-21T15:27:46.026Z,32.72
2023-06-21T15:30:14.324Z,32.65
2023-06-21T15:32:41.564Z,32.52
2023-06-21T15:35:10.792Z,32.60
2023-06-21T15:37:40.550Z,32.58
2023-06-21T15:40:11.465Z,32.46
2023-06-21T15:42:43.727Z,32.03
2023-06-21T15:45:11.076Z,32.03
2023-06-21T15:47:38.143Z,32.15
2023-06-21T15:50:07.958Z,32.18
2023-06-21T15:52:34.960Z,32.06
2023-06-21T15:55:01.783Z,32.03
2023-06-21T15:57:28.668Z,31.98
2023-06-21T15:59:55.641Z,31.93
2023-06-21T16:05:05.218Z,31.78
2023-06-21T16:07:32.196Z,31.71
2023-06-21T16:09:59.983Z,31.66
2023-06-21T16:12:27.057Z,31.55
2023-06-21T16:14:55.796Z,31.38
2023-06-21T16:17:23.515Z,31.25
2023-06-21T16:19:50.539Z,31.24
2023-06-21T16:22:17.634Z,31.28
2023-06-21T16:24:44.642Z,31.21
2023-06-21T16:27:11.716Z,31.25
2023-06-21T16:29:38.547Z,31.26
2023-06-21T16:32:05.800Z,31.08
2023-06-21T16:34:32.908Z,31.17
2023-06-21T16:36:59.817Z,31.08
2023-06-21T16:39:26.662Z,31.04
2023-06-21T16:41:53.688Z,30.91
2023-06-21T16:44:20.595Z,30.83
2023-06-21T16:46:47.451Z,30.73
2023-06-21T16:49:14.372Z,30.59
2023-06-21T16:51:41.178Z,30.53
2023-06-21T16:54:09.090Z,30.37
2023-06-21T16:56:36.005Z,30.32
2023-06-21T16:59:03.795Z,30.27
2023-06-21T17:01:30.697Z,30.26
2023-06-21T17:03:57.726Z,30.18
2023-06-21T17:06:25.620Z,30.13
2023-06-21T17:08:55.545Z,30.11
2023-06-21T17:11:24.080Z,30.04
2023-06-21T17:13:51.162Z,29.99
2023-06-21T17:16:18.003Z,29.91
2023-06-21T17:18:44.936Z,29.86
2023-06-21T17:21:11.785Z,29.81
2023-06-21T17:23:40.736Z,29.72
2023-06-21T17:26:09.854Z,29.67
2023-06-21T17:28:37.612Z,29.54
2023-06-21T17:31:04.622Z,29.48
2023-06-21T17:33:31.680Z,29.42
2023-06-21T17:35:58.985Z,29.40
2023-06-21T17:38:25.951Z,29.31
2023-06-21T17:40:53.026Z,29.23
2023-06-21T17:43:20.179Z,29.13
2023-06-21T17:45:47.066Z,29.05
2023-06-21T17:48:15.146Z,28.99
2023-06-21T17:50:42.242Z,28.93
2023-06-21T17:53:10.126Z,28.87
2023-06-21T17:55:37.211Z,28.84
2023-06-21T17:58:06.525Z,28.81
2023-06-21T18:00:34.985Z,28.69
2023-06-21T18:03:01.967Z,28.70
2023-06-21T18:05:29.040Z,28.64
2023-06-21T18:07:56.244Z,28.58
2023-06-21T18:10:23.225Z,28.57
2023-06-21T18:12:50.059Z,28.48
2023-06-21T18:15:17.503Z,28.42
2023-06-21T18:17:44.458Z,28.39
2023-06-21T18:20:12.997Z,28.33
2023-06-21T18:22:43.685Z,28.27
2023-06-21T18:25:11.097Z,28.21
2023-06-21T18:27:37.966Z,28.18
2023-06-21T18:30:10.010Z,28.08
2023-06-21T18:32:39.237Z,27.96
2023-06-21T18:35:09.860Z,27.80
2023-06-21T18:37:39.900Z,27.66
2023-06-21T18:40:08.796Z,27.55
2023-06-21T18:42:35.890Z,27.46
2023-06-21T18:45:02.926Z,27.34
2023-06-21T18:47:29.868Z,27.32
2023-06-21T18:49:58.473Z,27.24
2023-06-21T18:52:25.442Z,27.14
2023-06-21T18:54:52.800Z,27.11
2023-06-21T18:57:19.879Z,27.00
2023-06-21T18:59:46.933Z,26.93
2023-06-21T19:02:13.833Z,26.89
2023-06-21T19:04:43.767Z,26.82
2023-06-21T19:07:11.582Z,26.66
2023-06-21T19:09:38.681Z,26.61
2023-06-21T19:12:06.415Z,26.53
2023-06-21T19:14:33.827Z,26.51
2023-06-21T19:17:01.534Z,26.29
2023-06-21T19:19:28.413Z,26.25
2023-06-21T19:21:59.724Z,26.22
2023-06-21T19:24:28.883Z,26.24
2023-06-21T19:26:55.971Z,26.21
2023-06-21T19:29:23.045Z,26.13
2023-06-21T19:31:50.467Z,26.01
2023-06-21T19:34:21.268Z,25.89
2023-06-21T19:36:48.213Z,25.86
2023-06-21T19:39:15.472Z,25.67
2023-06-21T19:41:42.352Z,25.73
2023-06-21T19:44:11.511Z,25.58
2023-06-21T19:46:40.844Z,25.54
2023-06-21T19:49:07.869Z,25.49
2023-06-21T19:51:34.923Z,25.47
2023-06-21T19:54:02.451Z,25.44
2023-06-21T19:56:29.460Z,25.24
2023-06-21T19:58:58.312Z,25.22
2023-06-21T20:04:34.353Z,25.05
2023-06-21T20:07:01.660Z,25.06
2023-06-21T20:09:28.890Z,25.07
2023-06-21T20:11:56.244Z,24.95
2023-06-21T20:14:23.294Z,25.00
2023-06-21T20:16:50.234Z,24.91
2023-06-21T20:19:17.321Z,24.75
2023-06-21T20:21:46.938Z,24.72
2023-06-21T20:24:15.063Z,24.60
2023-06-21T20:26:43.360Z,24.40
2023-06-21T20:29:10.408Z,24.18
2023-06-21T20:31:37.738Z,24.18
2023-06-21T20:34:04.840Z,24.01
2023-06-21T20:36:34.798Z,23.90
2023-06-21T20:39:06.991Z,23.73
2023-06-21T20:41:33.947Z,23.86
2023-06-21T20:44:03.204Z,23.96
2023-06-21T20:46:30.356Z,24.05
2023-06-21T20:48:59.751Z,23.95
2023-06-21T20:51:26.812Z,23.97
2023-06-21T20:53:53.909Z,23.73
2023-06-21T20:56:22.930Z,23.93
2023-06-21T20:58:49.834Z,23.97
2023-06-21T21:01:16.997Z,23.96
2023-06-21T21:03:45.955Z,24.07
2023-06-21T21:06:13.237Z,24.05
2023-06-21T21:08:40.870Z,24.10
2023-06-21T21:11:10.715Z,24.08
2023-06-21T21:13:41.880Z,24.04
2023-06-21T21:16:09.198Z,23.98
2023-06-21T21:18:36.072Z,23.95
2023-06-21T21:21:07.166Z,23.94
2023-06-21T21:23:34.015Z,23.97
2023-06-21T21:26:00.913Z,23.96
2023-06-21T21:28:28.152Z,23.92
2023-06-21T21:30:55.178Z,23.84
2023-06-21T21:33:22.170Z,23.85
2023-06-21T21:35:49.324Z,23.81
2023-06-21T21:38:16.272Z,23.80
2023-06-21T21:40:43.152Z,23.77
2023-06-21T21:43:10.474Z,23.75
2023-06-21T21:45:37.332Z,23.72
2023-06-21T21:48:04.764Z,23.55
2023-06-21T21:50:31.885Z,23.62
2023-06-21T21:52:58.797Z,23.59
2023-06-21T21:55:27.591Z,23.51
2023-06-21T21:57:54.536Z,23.45
2023-06-21T22:00:21.782Z,23.46
2023-06-21T22:02:49.116Z,23.44
2023-06-21T22:05:16.269Z,23.18
2023-06-21T22:07:43.261Z,23.05
2023-06-21T22:10:17.921Z,22.89
2023-06-21T22:12:52.577Z,22.93
2023-06-21T22:15:19.488Z,22.84
2023-06-21T22:17:46.473Z,22.83
2023-06-21T22:20:16.817Z,22.65
2023-06-21T22:22:44.300Z,22.65
2023-06-21T22:25:14.386Z,22.79
2023-06-21T22:27:42.242Z,22.79
2023-06-21T22:30:10.656Z,22.90
2023-06-21T22:32:37.706Z,22.90
2023-06-21T22:35:05.176Z,22.88
2023-06-21T22:37:35.066Z,22.91
2023-06-21T22:40:02.110Z,22.94
2023-06-21T22:42:29.082Z,22.92
2023-06-21T22:44:56.143Z,22.98
2023-06-21T22:47:24.840Z,23.05
2023-06-21T22:49:54.663Z,23.04
2023-06-21T22:52:21.789Z,22.97
2023-06-21T22:54:48.626Z,23.06
2023-06-21T22:57:15.744Z,22.94
2023-06-21T22:59:42.654Z,22.88
2023-06-21T23:02:09.837Z,22.83
2023-06-21T23:04:36.998Z,22.83
2023-06-21T23:07:04.189Z,22.90
2023-06-21T23:09:32.465Z,22.84
2023-06-21T23:11:59.776Z,22.81
2023-06-21T23:14:26.777Z,22.76
2023-06-21T23:16:53.717Z,22.74
2023-06-21T23:19:20.748Z,22.75
2023-06-21T23:21:47.692Z,22.52
2023-06-21T23:24:14.998Z,22.61
2023-06-21T23:26:42.589Z,22.60
2023-06-21T23:29:12.665Z,22.63
2023-06-21T23:31:40.010Z,22.47
2023-06-21T23:34:07.391Z,22.50
2023-06-21T23:36:34.904Z,22.45
2023-06-21T23:39:02.260Z,22.48
2023-06-21T23:41:30.360Z,22.52
2023-06-21T23:44:00.403Z,22.53
2023-06-21T23:46:32.013Z,22.42
2023-06-21T23:49:00.932Z,22.39
2023-06-21T23:51:31.339Z,22.39
2023-06-21T23:53:59.001Z,22.40
2023-06-21T23:56:27.887Z,22.38
2023-06-21T23:58:55.228Z,22.27
